sensor_id;sensor_type;location;lat;lon;timestamp;P1;durP1;ratioP1;P2;durP2;ratioP2
54271;SDS011;40184;53.362;5.216;2023-08-06T00:01:16;5.68;;;3.10;;
54271;SDS011;40184;53.362;5.216;2023-08-06T00:03:44;4.13;;;3.40;;
54271;SDS011;40184;53.362;5.216;2023-08-06T00:06:10;6.72;;;3.42;;
54271;SDS011;40184;53.362;5.216;2023-08-06T00:08:36;5.68;;;3.20;;
54271;SDS011;40184;53.362;5.216;2023-08-06T00:11:02;6.05;;;3.28;;
54271;SDS011;40184;53.362;5.216;2023-08-06T00:13:28;3.72;;;3.35;;
54271;SDS011;40184;53.362;5.216;2023-08-06T00:15:54;4.38;;;2.95;;
54271;SDS011;40184;53.362;5.216;2023-08-06T00:18:20;3.67;;;3.47;;
54271;SDS011;40184;53.362;5.216;2023-08-06T00:20:47;5.82;;;3.60;;
54271;SDS011;40184;53.362;5.216;2023-08-06T00:23:13;7.72;;;3.50;;
54271;SDS011;40184;53.362;5.216;2023-08-06T00:25:39;7.35;;;4.10;;
54271;SDS011;40184;53.362;5.216;2023-08-06T00:28:05;10.80;;;4.35;;
54271;SDS011;40184;53.362;5.216;2023-08-06T00:30:31;6.20;;;3.72;;
54271;SDS011;40184;53.362;5.216;2023-08-06T00:32:57;4.82;;;3.88;;
54271;SDS011;40184;53.362;5.216;2023-08-06T00:35:23;4.75;;;3.65;;
54271;SDS011;40184;53.362;5.216;2023-08-06T00:37:49;3.50;;;2.90;;
54271;SDS011;40184;53.362;5.216;2023-08-06T00:40:15;6.78;;;2.95;;
54271;SDS011;40184;53.362;5.216;2023-08-06T00:42:41;3.80;;;2.17;;
54271;SDS011;40184;53.362;5.216;2023-08-06T00:45:10;4.80;;;2.78;;
54271;SDS011;40184;53.362;5.216;2023-08-06T00:47:36;3.80;;;2.70;;
54271;SDS011;40184;53.362;5.216;2023-08-06T00:50:04;5.20;;;3.15;;
54271;SDS011;40184;53.362;5.216;2023-08-06T00:52:31;3.75;;;2.88;;
54271;SDS011;40184;53.362;5.216;2023-08-06T00:54:57;2.53;;;2.33;;
54271;SDS011;40184;53.362;5.216;2023-08-06T00:57:24;3.63;;;2.75;;
54271;SDS011;40184;53.362;5.216;2023-08-06T00:59:51;2.78;;;2.50;;
54271;SDS011;40184;53.362;5.216;2023-08-06T01:02:17;4.13;;;2.72;;
54271;SDS011;40184;53.362;5.216;2023-08-06T01:04:43;8.93;;;2.45;;
54271;SDS011;40184;53.362;5.216;2023-08-06T01:07:19;4.68;;;2.50;;
54271;SDS011;40184;53.362;5.216;2023-08-06T01:10:11;5.72;;;2.78;;
54271;SDS011;40184;53.362;5.216;2023-08-06T01:15:16;5.38;;;2.50;;
54271;SDS011;40184;53.362;5.216;2023-08-06T01:17:44;5.32;;;3.00;;
54271;SDS011;40184;53.362;5.216;2023-08-06T01:20:11;2.88;;;2.67;;
54271;SDS011;40184;53.362;5.216;2023-08-06T01:22:37;4.82;;;3.25;;
54271;SDS011;40184;53.362;5.216;2023-08-06T01:25:03;3.58;;;2.90;;
54271;SDS011;40184;53.362;5.216;2023-08-06T01:27:33;5.00;;;3.65;;
54271;SDS011;40184;53.362;5.216;2023-08-06T01:30:03;3.95;;;2.65;;
54271;SDS011;40184;53.362;5.216;2023-08-06T01:32:34;3.35;;;2.53;;
54271;SDS011;40184;53.362;5.216;2023-08-06T01:35:00;4.78;;;2.97;;
54271;SDS011;40184;53.362;5.216;2023-08-06T01:37:28;3.70;;;2.60;;
54271;SDS011;40184;53.362;5.216;2023-08-06T01:39:54;5.22;;;4.15;;
54271;SDS011;40184;53.362;5.216;2023-08-06T01:42:20;3.63;;;2.83;;
54271;SDS011;40184;53.362;5.216;2023-08-06T01:44:46;4.60;;;3.47;;
54271;SDS011;40184;53.362;5.216;2023-08-06T01:47:12;7.97;;;4.10;;
54271;SDS011;40184;53.362;5.216;2023-08-06T01:49:38;4.50;;;4.10;;
54271;SDS011;40184;53.362;5.216;2023-08-06T01:52:05;5.03;;;3.55;;
54271;SDS011;40184;53.362;5.216;2023-08-06T01:54:31;4.45;;;3.38;;
54271;SDS011;40184;53.362;5.216;2023-08-06T01:56:57;7.05;;;3.78;;
54271;SDS011;40184;53.362;5.216;2023-08-06T01:59:23;5.85;;;3.78;;
54271;SDS011;40184;53.362;5.216;2023-08-06T02:01:50;6.68;;;4.22;;
54271;SDS011;40184;53.362;5.216;2023-08-06T02:04:16;5.85;;;4.18;;
54271;SDS011;40184;53.362;5.216;2023-08-06T02:06:42;4.38;;;3.97;;
54271;SDS011;40184;53.362;5.216;2023-08-06T02:09:08;5.18;;;4.45;;
54271;SDS011;40184;53.362;5.216;2023-08-06T02:11:34;7.13;;;4.70;;
54271;SDS011;40184;53.362;5.216;2023-08-06T02:14:00;7.80;;;5.32;;
54271;SDS011;40184;53.362;5.216;2023-08-06T02:16:26;5.70;;;4.68;;
54271;SDS011;40184;53.362;5.216;2023-08-06T02:18:52;5.38;;;4.88;;
54271;SDS011;40184;53.362;5.216;2023-08-06T02:21:18;6.78;;;5.03;;
54271;SDS011;40184;53.362;5.216;2023-08-06T02:23:44;6.75;;;6.13;;
54271;SDS011;40184;53.362;5.216;2023-08-06T02:26:10;11.02;;;5.68;;
54271;SDS011;40184;53.362;5.216;2023-08-06T02:28:37;6.95;;;5.90;;
54271;SDS011;40184;53.362;5.216;2023-08-06T02:31:03;5.90;;;5.40;;
54271;SDS011;40184;53.362;5.216;2023-08-06T02:33:29;6.78;;;6.18;;
54271;SDS011;40184;53.362;5.216;2023-08-06T02:35:58;6.88;;;6.05;;
54271;SDS011;40184;53.362;5.216;2023-08-06T02:38:25;7.57;;;6.30;;
54271;SDS011;40184;53.362;5.216;2023-08-06T02:40:51;7.18;;;6.03;;
54271;SDS011;40184;53.362;5.216;2023-08-06T02:43:17;8.48;;;6.57;;
54271;SDS011;40184;53.362;5.216;2023-08-06T02:45:43;8.93;;;6.47;;
54271;SDS011;40184;53.362;5.216;2023-08-06T02:48:09;9.13;;;7.20;;
54271;SDS011;40184;53.362;5.216;2023-08-06T02:50:39;8.60;;;6.63;;
54271;SDS011;40184;53.362;5.216;2023-08-06T02:53:06;7.15;;;6.55;;
54271;SDS011;40184;53.362;5.216;2023-08-06T02:55:32;8.15;;;7.13;;
54271;SDS011;40184;53.362;5.216;2023-08-06T02:57:59;9.68;;;6.97;;
54271;SDS011;40184;53.362;5.216;2023-08-06T03:00:25;7.25;;;6.28;;
54271;SDS011;40184;53.362;5.216;2023-08-06T03:02:51;7.40;;;6.70;;
54271;SDS011;40184;53.362;5.216;2023-08-06T03:05:17;8.88;;;6.88;;
54271;SDS011;40184;53.362;5.216;2023-08-06T03:07:43;8.35;;;5.70;;
54271;SDS011;40184;53.362;5.216;2023-08-06T03:10:09;9.50;;;6.18;;
54271;SDS011;40184;53.362;5.216;2023-08-06T03:12:36;7.30;;;6.40;;
54271;SDS011;40184;53.362;5.216;2023-08-06T03:15:02;9.40;;;7.15;;
54271;SDS011;40184;53.362;5.216;2023-08-06T03:17:28;7.88;;;6.80;;
54271;SDS011;40184;53.362;5.216;2023-08-06T03:19:54;8.52;;;6.63;;
54271;SDS011;40184;53.362;5.216;2023-08-06T03:22:20;9.60;;;7.28;;
54271;SDS011;40184;53.362;5.216;2023-08-06T03:24:49;7.32;;;6.35;;
54271;SDS011;40184;53.362;5.216;2023-08-06T03:27:16;9.65;;;6.72;;
54271;SDS011;40184;53.362;5.216;2023-08-06T03:29:42;6.63;;;5.93;;
54271;SDS011;40184;53.362;5.216;2023-08-06T03:32:08;10.95;;;7.10;;
54271;SDS011;40184;53.362;5.216;2023-08-06T03:34:34;8.60;;;6.97;;
54271;SDS011;40184;53.362;5.216;2023-08-06T03:37:00;7.90;;;6.65;;
54271;SDS011;40184;53.362;5.216;2023-08-06T03:39:26;12.32;;;7.63;;
54271;SDS011;40184;53.362;5.216;2023-08-06T03:41:52;10.70;;;7.75;;
54271;SDS011;40184;53.362;5.216;2023-08-06T03:44:19;7.85;;;6.57;;
54271;SDS011;40184;53.362;5.216;2023-08-06T03:46:45;10.60;;;7.28;;
54271;SDS011;40184;53.362;5.216;2023-08-06T03:49:11;7.95;;;6.43;;
54271;SDS011;40184;53.362;5.216;2023-08-06T03:51:37;7.57;;;6.65;;
54271;SDS011;40184;53.362;5.216;2023-08-06T03:54:03;9.60;;;7.00;;
54271;SDS011;40184;53.362;5.216;2023-08-06T03:56:29;7.78;;;6.95;;
54271;SDS011;40184;53.362;5.216;2023-08-06T03:58:55;11.90;;;7.25;;
54271;SDS011;40184;53.362;5.216;2023-08-06T04:01:22;7.97;;;7.18;;
54271;SDS011;40184;53.362;5.216;2023-08-06T04:03:48;9.13;;;7.30;;
54271;SDS011;40184;53.362;5.216;2023-08-06T04:06:14;9.25;;;7.85;;
54271;SDS011;40184;53.362;5.216;2023-08-06T04:08:40;8.02;;;7.25;;
54271;SDS011;40184;53.362;5.216;2023-08-06T04:11:06;15.00;;;6.43;;
54271;SDS011;40184;53.362;5.216;2023-08-06T04:13:32;8.95;;;6.90;;
54271;SDS011;40184;53.362;5.216;2023-08-06T04:16:04;9.27;;;7.50;;
54271;SDS011;40184;53.362;5.216;2023-08-06T04:18:30;10.23;;;7.45;;
54271;SDS011;40184;53.362;5.216;2023-08-06T04:20:57;8.27;;;6.78;;
54271;SDS011;40184;53.362;5.216;2023-08-06T04:23:23;8.25;;;7.32;;
54271;SDS011;40184;53.362;5.216;2023-08-06T04:25:49;9.60;;;7.50;;
54271;SDS011;40184;53.362;5.216;2023-08-06T04:28:16;8.65;;;6.82;;
54271;SDS011;40184;53.362;5.216;2023-08-06T04:30:42;13.63;;;8.30;;
54271;SDS011;40184;53.362;5.216;2023-08-06T04:33:08;11.30;;;7.32;;
54271;SDS011;40184;53.362;5.216;2023-08-06T04:35:34;10.48;;;8.10;;
54271;SDS011;40184;53.362;5.216;2023-08-06T04:38:00;12.57;;;8.68;;
54271;SDS011;40184;53.362;5.216;2023-08-06T04:40:26;9.32;;;7.88;;
54271;SDS011;40184;53.362;5.216;2023-08-06T04:42:52;11.23;;;7.43;;
54271;SDS011;40184;53.362;5.216;2023-08-06T04:45:18;9.95;;;7.80;;
54271;SDS011;40184;53.362;5.216;2023-08-06T04:47:44;9.50;;;7.63;;
54271;SDS011;40184;53.362;5.216;2023-08-06T04:50:10;9.00;;;7.88;;
54271;SDS011;40184;53.362;5.216;2023-08-06T04:52:37;7.70;;;6.88;;
54271;SDS011;40184;53.362;5.216;2023-08-06T04:55:03;7.68;;;7.05;;
54271;SDS011;40184;53.362;5.216;2023-08-06T04:57:31;9.20;;;7.38;;
54271;SDS011;40184;53.362;5.216;2023-08-06T04:59:57;9.20;;;7.88;;
54271;SDS011;40184;53.362;5.216;2023-08-06T05:02:23;10.45;;;7.22;;
54271;SDS011;40184;53.362;5.216;2023-08-06T05:04:49;7.78;;;6.93;;
54271;SDS011;40184;53.362;5.216;2023-08-06T05:07:15;8.55;;;7.65;;
54271;SDS011;40184;53.362;5.216;2023-08-06T05:09:41;14.77;;;7.32;;
54271;SDS011;40184;53.362;5.216;2023-08-06T05:12:07;8.30;;;7.33;;
54271;SDS011;40184;53.362;5.216;2023-08-06T05:14:33;10.23;;;8.77;;
54271;SDS011;40184;53.362;5.216;2023-08-06T05:16:59;8.32;;;6.97;;
54271;SDS011;40184;53.362;5.216;2023-08-06T05:19:28;11.70;;;7.28;;
54271;SDS011;40184;53.362;5.216;2023-08-06T05:21:54;7.43;;;6.40;;
54271;SDS011;40184;53.362;5.216;2023-08-06T05:24:20;10.43;;;6.88;;
54271;SDS011;40184;53.362;5.216;2023-08-06T05:26:46;7.57;;;6.88;;
54271;SDS011;40184;53.362;5.216;2023-08-06T05:29:13;7.40;;;6.70;;
54271;SDS011;40184;53.362;5.216;2023-08-06T05:31:39;10.13;;;6.45;;
54271;SDS011;40184;53.362;5.216;2023-08-06T05:34:05;8.93;;;6.38;;
54271;SDS011;40184;53.362;5.216;2023-08-06T05:36:31;10.18;;;7.57;;
54271;SDS011;40184;53.362;5.216;2023-08-06T05:38:57;7.30;;;6.57;;
54271;SDS011;40184;53.362;5.216;2023-08-06T05:41:23;7.25;;;6.57;;
54271;SDS011;40184;53.362;5.216;2023-08-06T05:43:49;7.68;;;6.97;;
54271;SDS011;40184;53.362;5.216;2023-08-06T05:46:15;7.20;;;5.85;;
54271;SDS011;40184;53.362;5.216;2023-08-06T05:48:41;9.48;;;6.57;;
54271;SDS011;40184;53.362;5.216;2023-08-06T05:51:07;8.07;;;6.50;;
54271;SDS011;40184;53.362;5.216;2023-08-06T05:53:34;7.88;;;6.07;;
54271;SDS011;40184;53.362;5.216;2023-08-06T05:56:03;8.52;;;6.05;;
54271;SDS011;40184;53.362;5.216;2023-08-06T05:58:29;6.55;;;5.50;;
54271;SDS011;40184;53.362;5.216;2023-08-06T06:00:55;6.07;;;5.47;;
54271;SDS011;40184;53.362;5.216;2023-08-06T06:03:21;6.05;;;5.45;;
54271;SDS011;40184;53.362;5.216;2023-08-06T06:05:48;5.60;;;4.97;;
54271;SDS011;40184;53.362;5.216;2023-08-06T06:08:14;7.57;;;5.63;;
54271;SDS011;40184;53.362;5.216;2023-08-06T06:10:40;7.68;;;5.55;;
54271;SDS011;40184;53.362;5.216;2023-08-06T06:13:06;6.13;;;5.63;;
54271;SDS011;40184;53.362;5.216;2023-08-06T06:15:32;9.95;;;6.15;;
54271;SDS011;40184;53.362;5.216;2023-08-06T06:17:59;7.38;;;6.10;;
54271;SDS011;40184;53.362;5.216;2023-08-06T06:20:25;9.68;;;6.88;;
54271;SDS011;40184;53.362;5.216;2023-08-06T06:22:51;8.27;;;6.55;;
54271;SDS011;40184;53.362;5.216;2023-08-06T06:25:17;9.40;;;6.88;;
54271;SDS011;40184;53.362;5.216;2023-08-06T06:27:44;8.63;;;5.93;;
54271;SDS011;40184;53.362;5.216;2023-08-06T06:30:10;6.05;;;5.47;;
54271;SDS011;40184;53.362;5.216;2023-08-06T06:32:37;5.68;;;5.15;;
54271;SDS011;40184;53.362;5.216;2023-08-06T06:35:05;7.93;;;5.32;;
54271;SDS011;40184;53.362;5.216;2023-08-06T06:37:31;6.97;;;5.75;;
54271;SDS011;40184;53.362;5.216;2023-08-06T06:39:57;6.68;;;5.97;;
54271;SDS011;40184;53.362;5.216;2023-08-06T06:42:23;8.18;;;6.22;;
54271;SDS011;40184;53.362;5.216;2023-08-06T06:44:49;7.25;;;6.30;;
54271;SDS011;40184;53.362;5.216;2023-08-06T06:47:15;8.65;;;6.13;;
54271;SDS011;40184;53.362;5.216;2023-08-06T06:49:41;7.03;;;5.50;;
54271;SDS011;40184;53.362;5.216;2023-08-06T06:52:07;11.23;;;6.80;;
54271;SDS011;40184;53.362;5.216;2023-08-06T06:54:33;7.97;;;6.47;;
54271;SDS011;40184;53.362;5.216;2023-08-06T06:56:59;5.97;;;5.07;;
54271;SDS011;40184;53.362;5.216;2023-08-06T06:59:25;5.78;;;4.97;;
54271;SDS011;40184;53.362;5.216;2023-08-06T07:01:52;5.03;;;4.55;;
54271;SDS011;40184;53.362;5.216;2023-08-06T07:04:18;7.68;;;4.88;;
54271;SDS011;40184;53.362;5.216;2023-08-06T07:06:44;9.35;;;5.20;;
54271;SDS011;40184;53.362;5.216;2023-08-06T07:09:10;5.32;;;4.50;;
54271;SDS011;40184;53.362;5.216;2023-08-06T07:11:36;7.80;;;5.53;;
54271;SDS011;40184;53.362;5.216;2023-08-06T07:14:02;7.05;;;4.93;;
54271;SDS011;40184;53.362;5.216;2023-08-06T07:16:28;5.03;;;4.30;;
54271;SDS011;40184;53.362;5.216;2023-08-06T07:18:54;4.97;;;4.07;;
54271;SDS011;40184;53.362;5.216;2023-08-06T07:21:21;8.98;;;4.57;;
54271;SDS011;40184;53.362;5.216;2023-08-06T07:23:47;13.55;;;5.43;;
54271;SDS011;40184;53.362;5.216;2023-08-06T07:26:15;10.65;;;5.43;;
54271;SDS011;40184;53.362;5.216;2023-08-06T07:28:41;8.75;;;4.88;;
54271;SDS011;40184;53.362;5.216;2023-08-06T07:31:07;9.90;;;3.95;;
54271;SDS011;40184;53.362;5.216;2023-08-06T07:33:33;8.23;;;4.45;;
54271;SDS011;40184;53.362;5.216;2023-08-06T07:35:59;7.13;;;3.65;;
54271;SDS011;40184;53.362;5.216;2023-08-06T07:38:25;8.38;;;3.60;;
54271;SDS011;40184;53.362;5.216;2023-08-06T07:40:53;8.98;;;3.58;;
54271;SDS011;40184;53.362;5.216;2023-08-06T07:43:19;9.30;;;4.00;;
54271;SDS011;40184;53.362;5.216;2023-08-06T07:45:45;5.53;;;3.40;;
54271;SDS011;40184;53.362;5.216;2023-08-06T07:48:11;7.45;;;3.95;;
54271;SDS011;40184;53.362;5.216;2023-08-06T07:50:37;12.35;;;4.63;;
54271;SDS011;40184;53.362;5.216;2023-08-06T07:53:03;7.40;;;5.03;;
54271;SDS011;40184;53.362;5.216;2023-08-06T07:55:29;8.80;;;4.93;;
54271;SDS011;40184;53.362;5.216;2023-08-06T07:57:55;7.85;;;4.43;;
54271;SDS011;40184;53.362;5.216;2023-08-06T08:00:21;15.18;;;6.18;;
54271;SDS011;40184;53.362;5.216;2023-08-06T08:02:47;8.77;;;4.60;;
54271;SDS011;40184;53.362;5.216;2023-08-06T08:05:14;6.93;;;4.68;;
54271;SDS011;40184;53.362;5.216;2023-08-06T08:07:40;6.97;;;4.22;;
54271;SDS011;40184;53.362;5.216;2023-08-06T08:10:06;6.43;;;3.88;;
54271;SDS011;40184;53.362;5.216;2023-08-06T08:12:32;5.57;;;3.85;;
54271;SDS011;40184;53.362;5.216;2023-08-06T08:14:58;4.63;;;3.92;;
54271;SDS011;40184;53.362;5.216;2023-08-06T08:17:24;4.88;;;3.83;;
54271;SDS011;40184;53.362;5.216;2023-08-06T08:19:51;5.63;;;4.13;;
54271;SDS011;40184;53.362;5.216;2023-08-06T08:22:17;6.07;;;3.92;;
54271;SDS011;40184;53.362;5.216;2023-08-06T08:24:43;7.03;;;4.45;;
54271;SDS011;40184;53.362;5.216;2023-08-06T08:27:09;6.03;;;3.70;;
54271;SDS011;40184;53.362;5.216;2023-08-06T08:29:35;8.35;;;3.70;;
54271;SDS011;40184;53.362;5.216;2023-08-06T08:32:01;10.00;;;4.32;;
54271;SDS011;40184;53.362;5.216;2023-08-06T08:34:27;5.35;;;3.65;;
54271;SDS011;40184;53.362;5.216;2023-08-06T08:36:53;7.72;;;3.60;;
54271;SDS011;40184;53.362;5.216;2023-08-06T08:39:19;5.40;;;3.47;;
54271;SDS011;40184;53.362;5.216;2023-08-06T08:41:45;11.95;;;3.67;;
54271;SDS011;40184;53.362;5.216;2023-08-06T08:44:11;4.47;;;3.53;;
54271;SDS011;40184;53.362;5.216;2023-08-06T08:46:40;3.80;;;3.00;;
54271;SDS011;40184;53.362;5.216;2023-08-06T08:49:07;4.32;;;3.28;;
54271;SDS011;40184;53.362;5.216;2023-08-06T08:51:33;4.80;;;3.08;;
54271;SDS011;40184;53.362;5.216;2023-08-06T08:54:01;6.05;;;3.55;;
54271;SDS011;40184;53.362;5.216;2023-08-06T08:56:28;5.47;;;3.30;;
54271;SDS011;40184;53.362;5.216;2023-08-06T08:58:54;3.75;;;3.03;;
54271;SDS011;40184;53.362;5.216;2023-08-06T09:01:23;4.25;;;2.85;;
54271;SDS011;40184;53.362;5.216;2023-08-06T09:03:51;6.72;;;2.97;;
54271;SDS011;40184;53.362;5.216;2023-08-06T09:06:17;5.38;;;3.65;;
54271;SDS011;40184;53.362;5.216;2023-08-06T09:08:55;3.95;;;3.35;;
54271;SDS011;40184;53.362;5.216;2023-08-06T09:11:22;4.45;;;3.22;;
54271;SDS011;40184;53.362;5.216;2023-08-06T09:13:49;9.30;;;3.70;;
54271;SDS011;40184;53.362;5.216;2023-08-06T09:16:15;3.33;;;2.90;;
54271;SDS011;40184;53.362;5.216;2023-08-06T09:18:41;3.53;;;2.85;;
54271;SDS011;40184;53.362;5.216;2023-08-06T09:21:12;6.05;;;3.20;;
54271;SDS011;40184;53.362;5.216;2023-08-06T09:23:39;5.45;;;2.42;;
54271;SDS011;40184;53.362;5.216;2023-08-06T09:26:05;3.20;;;2.05;;
54271;SDS011;40184;53.362;5.216;2023-08-06T09:28:37;4.68;;;2.95;;
54271;SDS011;40184;53.362;5.216;2023-08-06T09:31:08;5.80;;;2.35;;
54271;SDS011;40184;53.362;5.216;2023-08-06T09:33:36;5.72;;;2.65;;
54271;SDS011;40184;53.362;5.216;2023-08-06T09:36:10;4.82;;;3.00;;
54271;SDS011;40184;53.362;5.216;2023-08-06T09:38:39;4.32;;;2.72;;
54271;SDS011;40184;53.362;5.216;2023-08-06T09:41:06;2.50;;;2.08;;
54271;SDS011;40184;53.362;5.216;2023-08-06T09:43:39;3.45;;;2.13;;
54271;SDS011;40184;53.362;5.216;2023-08-06T09:46:12;2.15;;;1.83;;
54271;SDS011;40184;53.362;5.216;2023-08-06T09:48:39;3.83;;;2.20;;
54271;SDS011;40184;53.362;5.216;2023-08-06T09:51:06;5.75;;;2.20;;
54271;SDS011;40184;53.362;5.216;2023-08-06T09:53:34;5.40;;;2.00;;
54271;SDS011;40184;53.362;5.216;2023-08-06T09:56:01;7.95;;;1.90;;
54271;SDS011;40184;53.362;5.216;2023-08-06T09:58:29;3.35;;;2.25;;
54271;SDS011;40184;53.362;5.216;2023-08-06T10:00:56;3.55;;;3.00;;
54271;SDS011;40184;53.362;5.216;2023-08-06T10:03:23;3.38;;;1.80;;
54271;SDS011;40184;53.362;5.216;2023-08-06T10:05:49;2.78;;;2.08;;
54271;SDS011;40184;53.362;5.216;2023-08-06T10:08:15;6.55;;;2.92;;
54271;SDS011;40184;53.362;5.216;2023-08-06T10:10:41;3.10;;;2.17;;
54271;SDS011;40184;53.362;5.216;2023-08-06T10:13:11;3.08;;;2.25;;
54271;SDS011;40184;53.362;5.216;2023-08-06T10:15:38;2.30;;;1.98;;
54271;SDS011;40184;53.362;5.216;2023-08-06T10:18:04;4.25;;;1.92;;
54271;SDS011;40184;53.362;5.216;2023-08-06T10:20:35;3.28;;;2.97;;
54271;SDS011;40184;53.362;5.216;2023-08-06T10:23:02;2.50;;;1.98;;
54271;SDS011;40184;53.362;5.216;2023-08-06T10:25:32;2.65;;;1.80;;
54271;SDS011;40184;53.362;5.216;2023-08-06T10:27:58;3.75;;;2.20;;
54271;SDS011;40184;53.362;5.216;2023-08-06T10:30:28;5.47;;;2.20;;
54271;SDS011;40184;53.362;5.216;2023-08-06T10:32:56;3.92;;;2.13;;
54271;SDS011;40184;53.362;5.216;2023-08-06T10:35:36;2.10;;;1.80;;
54271;SDS011;40184;53.362;5.216;2023-08-06T10:38:05;2.78;;;1.73;;
54271;SDS011;40184;53.362;5.216;2023-08-06T10:40:32;2.60;;;2.00;;
54271;SDS011;40184;53.362;5.216;2023-08-06T10:42:59;8.27;;;2.33;;
54271;SDS011;40184;53.362;5.216;2023-08-06T10:45:26;4.88;;;1.73;;
54271;SDS011;40184;53.362;5.216;2023-08-06T10:47:54;4.50;;;2.38;;
54271;SDS011;40184;53.362;5.216;2023-08-06T10:50:23;6.55;;;2.53;;
54271;SDS011;40184;53.362;5.216;2023-08-06T10:52:49;2.38;;;1.58;;
54271;SDS011;40184;53.362;5.216;2023-08-06T10:55:22;8.30;;;2.65;;
54271;SDS011;40184;53.362;5.216;2023-08-06T10:57:48;4.93;;;2.10;;
54271;SDS011;40184;53.362;5.216;2023-08-06T11:00:14;5.82;;;1.85;;
54271;SDS011;40184;53.362;5.216;2023-08-06T11:02:41;3.22;;;2.13;;
54271;SDS011;40184;53.362;5.216;2023-08-06T11:05:08;2.88;;;2.05;;
54271;SDS011;40184;53.362;5.216;2023-08-06T11:07:34;3.83;;;2.25;;
54271;SDS011;40184;53.362;5.216;2023-08-06T11:10:04;2.45;;;1.83;;
54271;SDS011;40184;53.362;5.216;2023-08-06T11:12:31;4.20;;;1.88;;
54271;SDS011;40184;53.362;5.216;2023-08-06T11:14:57;3.38;;;2.55;;
54271;SDS011;40184;53.362;5.216;2023-08-06T11:17:23;3.63;;;1.60;;
54271;SDS011;40184;53.362;5.216;2023-08-06T11:19:50;3.80;;;2.05;;
54271;SDS011;40184;53.362;5.216;2023-08-06T11:22:17;2.63;;;1.73;;
54271;SDS011;40184;53.362;5.216;2023-08-06T11:24:43;4.18;;;1.67;;
54271;SDS011;40184;53.362;5.216;2023-08-06T11:27:16;2.10;;;1.88;;
54271;SDS011;40184;53.362;5.216;2023-08-06T11:29:42;2.92;;;1.77;;
54271;SDS011;40184;53.362;5.216;2023-08-06T11:32:09;3.05;;;1.85;;
54271;SDS011;40184;53.362;5.216;2023-08-06T11:34:35;5.15;;;2.63;;
54271;SDS011;40184;53.362;5.216;2023-08-06T11:37:02;9.63;;;2.90;;
54271;SDS011;40184;53.362;5.216;2023-08-06T11:39:30;4.50;;;2.05;;
54271;SDS011;40184;53.362;5.216;2023-08-06T11:41:57;3.30;;;1.83;;
54271;SDS011;40184;53.362;5.216;2023-08-06T11:44:25;6.30;;;2.05;;
54271;SDS011;40184;53.362;5.216;2023-08-06T11:46:52;4.38;;;1.90;;
54271;SDS011;40184;53.362;5.216;2023-08-06T11:49:21;6.93;;;3.55;;
54271;SDS011;40184;53.362;5.216;2023-08-06T11:51:49;4.88;;;2.03;;
54271;SDS011;40184;53.362;5.216;2023-08-06T11:54:15;4.47;;;2.15;;
54271;SDS011;40184;53.362;5.216;2023-08-06T11:56:42;4.40;;;2.00;;
54271;SDS011;40184;53.362;5.216;2023-08-06T11:59:08;6.90;;;2.13;;
54271;SDS011;40184;53.362;5.216;2023-08-06T12:01:35;4.95;;;2.47;;
54271;SDS011;40184;53.362;5.216;2023-08-06T12:04:01;7.20;;;2.03;;
54271;SDS011;40184;53.362;5.216;2023-08-06T12:06:27;7.35;;;1.65;;
54271;SDS011;40184;53.362;5.216;2023-08-06T12:08:54;5.88;;;2.08;;
54271;SDS011;40184;53.362;5.216;2023-08-06T12:11:23;3.20;;;1.85;;
54271;SDS011;40184;53.362;5.216;2023-08-06T12:13:52;2.83;;;1.80;;
54271;SDS011;40184;53.362;5.216;2023-08-06T12:16:18;2.17;;;1.27;;
54271;SDS011;40184;53.362;5.216;2023-08-06T12:18:45;3.67;;;2.00;;
54271;SDS011;40184;53.362;5.216;2023-08-06T12:21:13;3.00;;;1.60;;
54271;SDS011;40184;53.362;5.216;2023-08-06T12:23:40;3.17;;;1.60;;
54271;SDS011;40184;53.362;5.216;2023-08-06T12:26:06;5.20;;;2.55;;
54271;SDS011;40184;53.362;5.216;2023-08-06T12:28:32;2.90;;;1.63;;
54271;SDS011;40184;53.362;5.216;2023-08-06T12:30:58;1.80;;;1.30;;
54271;SDS011;40184;53.362;5.216;2023-08-06T12:33:24;3.55;;;1.50;;
54271;SDS011;40184;53.362;5.216;2023-08-06T12:35:50;2.42;;;1.50;;
54271;SDS011;40184;53.362;5.216;2023-08-06T12:38:19;3.05;;;1.52;;
54271;SDS011;40184;53.362;5.216;2023-08-06T12:40:45;2.38;;;1.20;;
54271;SDS011;40184;53.362;5.216;2023-08-06T12:43:11;4.03;;;1.52;;
54271;SDS011;40184;53.362;5.216;2023-08-06T12:45:37;2.90;;;1.70;;
54271;SDS011;40184;53.362;5.216;2023-08-06T12:48:03;2.33;;;1.65;;
54271;SDS011;40184;53.362;5.216;2023-08-06T12:50:30;4.50;;;1.58;;
54271;SDS011;40184;53.362;5.216;2023-08-06T12:52:57;2.97;;;1.30;;
54271;SDS011;40184;53.362;5.216;2023-08-06T12:55:23;2.28;;;1.55;;
54271;SDS011;40184;53.362;5.216;2023-08-06T12:57:50;1.65;;;1.52;;
54271;SDS011;40184;53.362;5.216;2023-08-06T13:00:16;1.92;;;1.35;;
54271;SDS011;40184;53.362;5.216;2023-08-06T13:02:42;2.88;;;1.50;;
54271;SDS011;40184;53.362;5.216;2023-08-06T13:05:08;2.13;;;1.38;;
54271;SDS011;40184;53.362;5.216;2023-08-06T13:07:35;1.40;;;1.30;;
54271;SDS011;40184;53.362;5.216;2023-08-06T13:10:01;2.45;;;1.23;;
54271;SDS011;40184;53.362;5.216;2023-08-06T13:12:27;2.65;;;1.52;;
54271;SDS011;40184;53.362;5.216;2023-08-06T13:14:53;1.90;;;1.30;;
54271;SDS011;40184;53.362;5.216;2023-08-06T13:17:22;1.80;;;1.50;;
54271;SDS011;40184;53.362;5.216;2023-08-06T13:19:48;3.03;;;1.40;;
54271;SDS011;40184;53.362;5.216;2023-08-06T13:22:14;8.27;;;2.30;;
54271;SDS011;40184;53.362;5.216;2023-08-06T13:24:40;2.63;;;1.90;;
54271;SDS011;40184;53.362;5.216;2023-08-06T13:27:06;2.08;;;1.88;;
54271;SDS011;40184;53.362;5.216;2023-08-06T13:29:34;1.73;;;1.30;;
54271;SDS011;40184;53.362;5.216;2023-08-06T13:32:00;3.55;;;1.45;;
54271;SDS011;40184;53.362;5.216;2023-08-06T13:34:26;2.20;;;1.95;;
54271;SDS011;40184;53.362;5.216;2023-08-06T13:36:53;3.70;;;2.65;;
54271;SDS011;40184;53.362;5.216;2023-08-06T13:39:19;3.75;;;1.60;;
54271;SDS011;40184;53.362;5.216;2023-08-06T13:41:45;1.67;;;1.52;;
54271;SDS011;40184;53.362;5.216;2023-08-06T13:44:11;1.50;;;1.35;;
54271;SDS011;40184;53.362;5.216;2023-08-06T13:46:39;1.50;;;1.33;;
54271;SDS011;40184;53.362;5.216;2023-08-06T13:49:06;1.55;;;1.30;;
54271;SDS011;40184;53.362;5.216;2023-08-06T13:51:32;1.52;;;1.25;;
54271;SDS011;40184;53.362;5.216;2023-08-06T13:54:00;2.13;;;1.17;;
54271;SDS011;40184;53.362;5.216;2023-08-06T13:56:26;1.55;;;1.15;;
54271;SDS011;40184;53.362;5.216;2023-08-06T13:58:54;1.40;;;1.20;;
54271;SDS011;40184;53.362;5.216;2023-08-06T14:01:20;1.50;;;0.90;;
54271;SDS011;40184;53.362;5.216;2023-08-06T14:03:46;2.28;;;0.90;;
54271;SDS011;40184;53.362;5.216;2023-08-06T14:06:13;2.80;;;1.35;;
54271;SDS011;40184;53.362;5.216;2023-08-06T14:08:39;1.40;;;1.30;;
54271;SDS011;40184;53.362;5.216;2023-08-06T14:11:05;5.85;;;1.38;;
54271;SDS011;40184;53.362;5.216;2023-08-06T14:13:32;2.33;;;1.20;;
54271;SDS011;40184;53.362;5.216;2023-08-06T14:15:58;4.82;;;1.60;;
54271;SDS011;40184;53.362;5.216;2023-08-06T14:18:24;4.55;;;1.40;;
54271;SDS011;40184;53.362;5.216;2023-08-06T14:20:50;3.00;;;1.27;;
54271;SDS011;40184;53.362;5.216;2023-08-06T14:23:17;8.02;;;2.40;;
54271;SDS011;40184;53.362;5.216;2023-08-06T14:25:43;15.15;;;3.05;;
54271;SDS011;40184;53.362;5.216;2023-08-06T14:28:09;12.32;;;2.60;;
54271;SDS011;40184;53.362;5.216;2023-08-06T14:30:35;9.85;;;2.40;;
54271;SDS011;40184;53.362;5.216;2023-08-06T14:33:02;3.75;;;1.65;;
54271;SDS011;40184;53.362;5.216;2023-08-06T14:35:28;7.32;;;2.20;;
54271;SDS011;40184;53.362;5.216;2023-08-06T14:37:54;8.32;;;1.92;;
54271;SDS011;40184;53.362;5.216;2023-08-06T14:40:20;8.80;;;2.50;;
54271;SDS011;40184;53.362;5.216;2023-08-06T14:42:47;10.90;;;2.50;;
54271;SDS011;40184;53.362;5.216;2023-08-06T14:45:13;9.30;;;2.30;;